Terminal Aerodrome Forecast
Issued by NWS

Home | Current Version | Previous Version | Text Only | Print | Product List | Glossary On
Versions: 1 2 3 4 5 6 7 8 9 10 11 12 13 14 15 16 17 18 19 20
000
FTUS41 KBGM 302300 AAA
TAFITH
TAF AMD
KITH 302339Z 3100/3124 32012G22KT 2SM -SHSN OVC015
      TEMPO 3100/3104 OVC009
     FM310600 32010KT 4SM -SHSN OVC015
     FM311500 31010KT P6SM SCT015 OVC025
      TEMPO 3120/3124 OVC015=

USA.gov is the U.S. government's official web portal to all federal, state and local government web resources and services.